Time;durP1;ratioP1;P1;durP2;ratioP2;P2;SDS_P1;SDS_P2;PMS_P1;PMS_P2;Temp;Humidity;BMP_temperature;BMP_pressure;BME280_temperature;BME280_humidity;BME280_pressure;Samples;Min_cycle;Max_cycle;Signal;HPM_P1;HPM_P2
2022/01/14 00:00:44;;;;;;;;;;;4.80;99.90;;;;;;4261607;33;38936;-87
2022/01/14 00:03:11;;;;;;;;;;;4.80;99.90;;;;;;4249476;33;39890;-87
2022/01/14 00:05:38;;;;;;;;;;;4.70;99.90;;;;;;4250692;33;20003;-87
2022/01/14 00:08:05;;;;;;;;;;;4.80;99.90;;;;;;4262601;33;20050;-87
2022/01/14 00:10:35;;;;;;;;;;;4.80;99.90;;;;;;4250338;33;20018;-87
2022/01/14 00:13:11;;;;;;;;;;;4.80;99.90;;;;;;4249888;33;28424;-87
2022/01/14 00:15:38;;;;;;;;;;;4.70;99.90;;;;;;4262232;33;35101;-87
2022/01/14 00:18:05;;;;;;;;;;;4.70;99.90;;;;;;4261771;33;25374;-87
2022/01/14 00:20:33;;;;;;;;;;;4.80;99.90;;;;;;4249502;33;36935;-87
2022/01/14 00:23:03;;;;;;;;;;;4.70;99.90;;;;;;4261280;33;37594;-87
2022/01/14 00:33:36;;;;;;;;;;;4.70;99.90;;;;;;4260808;33;45206;-87
2022/01/14 00:36:04;;;;;;;;;;;4.70;99.90;;;;;;4249642;33;33623;-87
2022/01/14 00:38:31;;;;;;;;;;;4.70;99.90;;;;;;4249387;33;37604;-87
2022/01/14 00:41:01;;;;;;;;;;;4.70;99.90;;;;;;4260562;33;45306;-87
2022/01/14 00:43:28;;;;;;;;;;;4.70;99.90;;;;;;4274834;33;20026;-87
2022/01/14 00:45:55;;;;;;;;;;;4.70;99.90;;;;;;4249032;33;38625;-86
2022/01/14 00:48:23;;;;;;;;;;;4.70;99.90;;;;;;4261603;33;31422;-87
2022/01/14 00:50:50;;;;;;;;;;;4.80;99.90;;;;;;4262014;33;20065;-87
2022/01/14 00:53:17;;;;;;;;;;;4.70;99.90;;;;;;4261895;33;20067;-87
2022/01/14 00:55:58;;;;;;;;;;;4.70;99.90;;;;;;4262536;33;20067;-87
2022/01/14 01:01:11;;;;;;;;;;;4.70;99.90;;;;;;4260301;33;35837;-86
2022/01/14 01:03:38;;;;;;;;;;;4.70;99.90;;;;;;4273483;33;39037;-87
2022/01/14 01:06:06;;;;;;;;;;;4.70;99.90;;;;;;4248682;33;36010;-86
2022/01/14 01:08:37;;;;;;;;;;;4.60;99.90;;;;;;4273695;33;43819;-87
2022/01/14 01:11:06;;;;;;;;;;;4.60;99.90;;;;;;4260950;33;29198;-87
2022/01/14 01:13:36;;;;;;;;;;;4.60;99.90;;;;;;4249912;33;20016;-87
2022/01/14 01:16:07;;;;;;;;;;;4.60;99.90;;;;;;4249898;33;20058;-87
2022/01/14 01:18:34;;;;;;;;;;;4.60;99.90;;;;;;4273641;33;27228;-86
2022/01/14 01:21:02;;;;;;;;;;;4.60;99.90;;;;;;4261661;33;20085;-87
2022/01/14 01:23:29;;;;;;;;;;;4.60;99.90;;;;;;4273303;33;27638;-87
2022/01/14 01:26:07;;;;;;;;;;;4.60;99.90;;;;;;4260852;33;32177;-87
2022/01/14 01:28:40;;;;;;;;;;;4.60;99.90;;;;;;4260976;33;28782;-87
2022/01/14 01:31:35;;;;;;;;;;;4.60;99.90;;;;;;4273327;33;39524;-87
2022/01/14 01:33:55;;;;;;;;;;;4.60;99.90;;;;;;4273426;33;32656;-87
2022/01/14 01:36:23;;;;;;;;;;;4.60;99.90;;;;;;4273693;33;28739;-87
2022/01/14 01:38:50;;;;;;;;;;;4.60;99.90;;;;;;4260273;33;29307;-87
2022/01/14 01:41:23;;;;;;;;;;;4.60;99.90;;;;;;4248862;33;21722;-87
2022/01/14 01:43:53;;;;;;;;;;;4.60;99.90;;;;;;4261030;33;27196;-87
2022/01/14 01:46:23;;;;;;;;;;;4.60;99.90;;;;;;4273302;33;34606;-87
2022/01/14 01:48:53;;;;;;;;;;;4.60;99.90;;;;;;4261059;33;33802;-87
2022/01/14 01:51:21;;;;;;;;;;;4.60;99.90;;;;;;4272993;33;31662;-87
2022/01/14 01:53:48;;;;;;;;;;;4.50;99.90;;;;;;4260533;33;20428;-87
2022/01/14 01:56:18;;;;;;;;;;;4.50;99.90;;;;;;4260596;33;40888;-87
2022/01/14 01:58:46;;;;;;;;;;;4.50;99.90;;;;;;4251000;33;30565;-87
2022/01/14 02:01:13;;;;;;;;;;;4.50;99.90;;;;;;4264651;33;34742;-87
2022/01/14 02:03:40;;;;;;;;;;;4.50;99.90;;;;;;4278046;33;32602;-87
2022/01/14 02:06:07;;;;;;;;;;;4.50;99.90;;;;;;4254265;33;20006;-87
2022/01/14 02:08:40;;;;;;;;;;;4.50;99.90;;;;;;4266746;33;20025;-87
2022/01/14 02:11:07;;;;;;;;;;;4.50;99.90;;;;;;4264957;33;31122;-87
2022/01/14 02:13:35;;;;;;;;;;;4.50;99.90;;;;;;4253424;33;29637;-87
2022/01/14 02:19:25;;;;;;;;;;;4.50;99.90;;;;;;4278743;33;20007;-87
2022/01/14 02:26:47;;;;;;;;;;;4.50;99.90;;;;;;4265990;33;20036;-87
2022/01/14 02:29:20;;;;;;;;;;;4.40;99.90;;;;;;4266498;33;20455;-87
2022/01/14 02:31:47;;;;;;;;;;;4.50;99.90;;;;;;4265490;33;19995;-87
2022/01/14 02:34:15;;;;;;;;;;;4.40;99.90;;;;;;4265773;33;20461;-87
2022/01/14 02:36:43;;;;;;;;;;;4.40;99.90;;;;;;4265535;33;20504;-87
2022/01/14 02:39:11;;;;;;;;;;;4.40;99.90;;;;;;4265277;33;24285;-86
2022/01/14 02:41:39;;;;;;;;;;;4.40;99.90;;;;;;4265184;33;32300;-87
2022/01/14 02:44:11;;;;;;;;;;;4.40;99.90;;;;;;4253516;33;20007;-87
2022/01/14 02:46:48;;;;;;;;;;;4.40;99.90;;;;;;4264998;33;35511;-87
2022/01/14 02:49:15;;;;;;;;;;;4.40;99.90;;;;;;4252866;33;34733;-87
2022/01/14 02:51:45;;;;;;;;;;;4.40;99.90;;;;;;4254087;33;20011;-87
2022/01/14 02:54:16;;;;;;;;;;;4.40;99.90;;;;;;4252960;33;37819;-87
2022/01/14 02:56:44;;;;;;;;;;;4.40;99.90;;;;;;4264506;33;41374;-87
2022/01/14 02:59:15;;;;;;;;;;;4.40;99.90;;;;;;4254013;33;20438;-87
2022/01/14 03:01:46;;;;;;;;;;;4.40;99.90;;;;;;4264288;33;38330;-87
2022/01/14 03:04:17;;;;;;;;;;;4.40;99.90;;;;;;4264304;33;45195;-87
2022/01/14 03:06:44;;;;;;;;;;;4.30;99.90;;;;;;4252554;33;35557;-87
2022/01/14 03:09:12;;;;;;;;;;;4.30;99.90;;;;;;4253099;33;20007;-87
2022/01/14 03:11:49;;;;;;;;;;;4.30;99.90;;;;;;4262508;33;30122;-87
2022/01/14 03:14:24;;;;;;;;;;;4.30;99.90;;;;;;4261805;33;44476;-87
2022/01/14 03:16:53;;;;;;;;;;;4.30;99.90;;;;;;4261851;33;43818;-87
2022/01/14 03:19:24;;;;;;;;;;;4.30;99.90;;;;;;4261955;33;32048;-87
2022/01/14 03:22:03;;;;;;;;;;;4.30;99.90;;;;;;4261989;33;35201;-87
2022/01/14 03:27:04;;;;;;;;;;;4.30;99.90;;;;;;4275011;33;45000;-87
2022/01/14 03:29:31;;;;;;;;;;;4.30;99.90;;;;;;4262423;33;41161;-87
2022/01/14 03:31:59;;;;;;;;;;;4.20;99.90;;;;;;4262402;33;31700;-87
2022/01/14 03:34:26;;;;;;;;;;;4.20;99.90;;;;;;4274821;33;29603;-87
2022/01/14 03:36:53;;;;;;;;;;;4.30;99.90;;;;;;4261915;33;35089;-87
2022/01/14 03:39:23;;;;;;;;;;;4.20;99.90;;;;;;4261779;33;38101;-87
2022/01/14 03:41:50;;;;;;;;;;;4.30;99.90;;;;;;4249605;33;44004;-87
2022/01/14 03:44:17;;;;;;;;;;;4.30;99.90;;;;;;4262354;33;31764;-87
2022/01/14 03:46:45;;;;;;;;;;;4.30;99.90;;;;;;4261672;33;39507;-87
2022/01/14 03:49:14;;;;;;;;;;;4.20;99.90;;;;;;4274597;33;42915;-87
2022/01/14 03:51:42;;;;;;;;;;;4.30;99.90;;;;;;4249699;33;39344;-87
2022/01/14 03:54:12;;;;;;;;;;;4.20;99.90;;;;;;4261744;33;41401;-87
2022/01/14 03:56:39;;;;;;;;;;;4.20;99.90;;;;;;4261762;33;29166;-86
2022/01/14 03:59:06;;;;;;;;;;;4.20;99.90;;;;;;4274641;33;32821;-87
2022/01/14 04:01:33;;;;;;;;;;;4.20;99.90;;;;;;4261325;33;33331;-87
2022/01/14 04:04:03;;;;;;;;;;;4.20;99.90;;;;;;4261803;33;40341;-87
2022/01/14 04:06:30;;;;;;;;;;;4.20;99.90;;;;;;4249682;33;28287;-87
2022/01/14 04:08:58;;;;;;;;;;;4.20;99.90;;;;;;4274606;33;25365;-87
2022/01/14 04:11:29;;;;;;;;;;;4.20;99.90;;;;;;4262812;33;20389;-86
2022/01/14 04:14:07;;;;;;;;;;;4.20;99.90;;;;;;4273943;33;40188;-87
2022/01/14 04:16:34;;;;;;;;;;;4.20;99.90;;;;;;4261957;33;35616;-87
2022/01/14 04:19:01;;;;;;;;;;;4.20;99.90;;;;;;4261339;33;40040;-87
2022/01/14 04:21:29;;;;;;;;;;;4.20;99.90;;;;;;4273318;33;44721;-87
2022/01/14 04:23:59;;;;;;;;;;;4.20;99.90;;;;;;4274584;33;29686;-86
2022/01/14 04:26:28;;;;;;;;;;;4.20;99.90;;;;;;4260912;33;45188;-87
2022/01/14 04:28:55;;;;;;;;;;;4.20;99.90;;;;;;4261140;33;34632;-87
2022/01/14 04:31:24;;;;;;;;;;;4.20;99.90;;;;;;4273886;33;43300;-86
2022/01/14 04:33:51;;;;;;;;;;;4.20;99.90;;;;;;4261171;33;32783;-86
2022/01/14 04:36:22;;;;;;;;;;;4.20;99.90;;;;;;4261290;33;35086;-87
2022/01/14 04:38:49;;;;;;;;;;;4.20;99.90;;;;;;4261053;33;41887;-87
2022/01/14 04:41:16;;;;;;;;;;;4.20;99.90;;;;;;4261461;33;28455;-86
2022/01/14 04:43:43;;;;;;;;;;;4.10;99.90;;;;;;4249165;33;31017;-87
2022/01/14 04:48:40;;;;;;;;;;;4.10;99.90;;;;;;4274739;33;20015;-87
2022/01/14 04:51:08;;;;;;;;;;;4.10;99.90;;;;;;4274670;33;20006;-87
2022/01/14 04:53:36;;;;;;;;;;;4.20;99.90;;;;;;4261278;33;20003;-86
2022/01/14 04:56:03;;;;;;;;;;;4.10;99.90;;;;;;4260774;33;36995;-86
2022/01/14 04:58:33;;;;;;;;;;;4.10;99.90;;;;;;4261962;33;20021;-87
2022/01/14 05:01:00;;;;;;;;;;;4.10;99.90;;;;;;4261096;33;34068;-87
2022/01/14 05:03:28;;;;;;;;;;;4.10;99.90;;;;;;4261590;33;20046;-87
2022/01/14 05:05:58;;;;;;;;;;;4.10;99.90;;;;;;4261832;33;20018;-87
2022/01/14 05:08:35;;;;;;;;;;;4.10;99.90;;;;;;4261338;33;20018;-87
2022/01/14 05:11:22;;;;;;;;;;;4.10;99.90;;;;;;4273543;33;44505;-87
2022/01/14 05:13:52;;;;;;;;;;;4.10;99.90;;;;;;4260862;33;37122;-87
2022/01/14 05:16:19;;;;;;;;;;;4.10;99.90;;;;;;4260943;33;34528;-86
2022/01/14 05:18:49;;;;;;;;;;;4.10;99.90;;;;;;4260270;33;42529;-87
2022/01/14 05:21:20;;;;;;;;;;;4.00;99.90;;;;;;4261220;33;20027;-86
2022/01/14 05:23:47;;;;;;;;;;;4.00;99.90;;;;;;4260851;33;36773;-86
2022/01/14 05:26:17;;;;;;;;;;;4.00;99.90;;;;;;4248507;33;36726;-86
2022/01/14 05:28:44;;;;;;;;;;;4.00;99.90;;;;;;4249140;33;23993;-86
2022/01/14 05:31:11;;;;;;;;;;;4.00;99.90;;;;;;4261191;33;24324;-86
2022/01/14 05:33:41;;;;;;;;;;;4.00;99.90;;;;;;4259945;33;32151;-87
2022/01/14 05:36:08;;;;;;;;;;;4.00;99.90;;;;;;4260281;33;44643;-86
2022/01/14 05:38:37;;;;;;;;;;;4.00;99.90;;;;;;4260803;33;33707;-86
2022/01/14 05:41:05;;;;;;;;;;;4.00;99.90;;;;;;4259863;33;44859;-87
2022/01/14 05:43:32;;;;;;;;;;;4.00;99.90;;;;;;4260793;33;30574;-86
2022/01/14 05:46:02;;;;;;;;;;;4.00;99.90;;;;;;4273933;33;20058;-86
2022/01/14 05:48:32;;;;;;;;;;;4.00;99.90;;;;;;4261177;33;20072;-87
2022/01/14 05:50:59;;;;;;;;;;;4.00;99.90;;;;;;4271915;33;38873;-86
2022/01/14 05:53:29;;;;;;;;;;;4.00;99.90;;;;;;4259851;33;37513;-87
2022/01/14 05:56:01;;;;;;;;;;;4.00;99.90;;;;;;4261036;33;38023;-86
2022/01/14 05:58:28;;;;;;;;;;;4.00;99.90;;;;;;4260257;33;26394;-86
2022/01/14 06:00:55;;;;;;;;;;;4.00;99.90;;;;;;4272961;33;28546;-87
2022/01/14 06:03:25;;;;;;;;;;;4.00;99.90;;;;;;4248022;33;39251;-87
2022/01/14 06:05:52;;;;;;;;;;;4.00;99.90;;;;;;4260384;33;32775;-87
2022/01/14 06:08:19;;;;;;;;;;;4.00;99.90;;;;;;4261114;33;20010;-86
2022/01/14 06:10:46;;;;;;;;;;;4.00;99.90;;;;;;4272665;33;38551;-86
2022/01/14 06:13:13;;;;;;;;;;;3.90;99.90;;;;;;4259793;33;41153;-86
2022/01/14 06:15:40;;;;;;;;;;;4.00;99.90;;;;;;4260068;33;29855;-86
2022/01/14 06:18:08;;;;;;;;;;;4.00;99.90;;;;;;4259984;33;38835;-86
2022/01/14 06:20:38;;;;;;;;;;;4.00;99.90;;;;;;4260171;33;32114;-86
2022/01/14 06:23:05;;;;;;;;;;;4.00;99.90;;;;;;4260108;33;24305;-86
2022/01/14 06:25:32;;;;;;;;;;;4.00;99.90;;;;;;4260202;33;35958;-86
2022/01/14 06:27:59;;;;;;;;;;;3.90;99.90;;;;;;4248024;33;34535;-86
2022/01/14 06:30:26;;;;;;;;;;;3.90;99.90;;;;;;4247691;33;39599;-85
2022/01/14 06:32:54;;;;;;;;;;;3.90;99.90;;;;;;4273157;33;27330;-86
2022/01/14 06:35:21;;;;;;;;;;;3.90;99.90;;;;;;4259636;33;45748;-86
2022/01/14 06:37:48;;;;;;;;;;;3.90;99.90;;;;;;4272336;33;39766;-86
2022/01/14 06:40:15;;;;;;;;;;;3.90;99.90;;;;;;4248162;33;24780;-86
2022/01/14 06:42:48;;;;;;;;;;;3.90;99.90;;;;;;4248745;33;31151;-86
2022/01/14 06:45:16;;;;;;;;;;;3.90;99.90;;;;;;4250601;33;20446;-86
2022/01/14 06:47:45;;;;;;;;;;;3.90;99.90;;;;;;4262332;33;43636;-86
2022/01/14 06:50:13;;;;;;;;;;;3.90;99.90;;;;;;4262963;33;30872;-86
2022/01/14 06:52:43;;;;;;;;;;;3.90;99.90;;;;;;4262492;33;27081;-86
2022/01/14 06:55:13;;;;;;;;;;;3.90;99.90;;;;;;4262164;33;38906;-86
2022/01/14 06:57:40;;;;;;;;;;;3.90;99.90;;;;;;4250664;33;29989;-86
2022/01/14 07:00:09;;;;;;;;;;;3.90;99.90;;;;;;4262300;33;35591;-86
2022/01/14 07:02:39;;;;;;;;;;;3.80;99.90;;;;;;4250412;33;32837;-86
2022/01/14 07:05:06;;;;;;;;;;;3.80;99.90;;;;;;4275415;33;30899;-86
2022/01/14 07:07:36;;;;;;;;;;;3.80;99.90;;;;;;4274994;33;28950;-86
2022/01/14 07:10:05;;;;;;;;;;;3.80;99.90;;;;;;4250489;33;37838;-86
2022/01/14 07:12:37;;;;;;;;;;;3.80;99.90;;;;;;4275989;33;20065;-86
2022/01/14 07:15:05;;;;;;;;;;;3.80;99.90;;;;;;4275077;33;30627;-85
2022/01/14 07:17:32;;;;;;;;;;;3.80;99.90;;;;;;4262430;33;29250;-85
2022/01/14 07:20:07;;;;;;;;;;;3.80;99.90;;;;;;4275997;33;20007;-87
2022/01/14 07:22:34;;;;;;;;;;;3.80;99.90;;;;;;4275111;33;37685;-84
2022/01/14 07:25:02;;;;;;;;;;;3.80;99.90;;;;;;4261650;33;43698;-84
2022/01/14 07:27:31;;;;;;;;;;;3.80;99.90;;;;;;4262286;33;33261;-84
2022/01/14 07:29:59;;;;;;;;;;;3.80;99.90;;;;;;4249749;33;38791;-84
2022/01/14 07:32:29;;;;;;;;;;;3.80;99.90;;;;;;4249778;33;39039;-84
2022/01/14 07:34:56;;;;;;;;;;;3.80;99.90;;;;;;4262610;33;20055;-84
2022/01/14 07:37:23;;;;;;;;;;;3.80;99.90;;;;;;4262947;33;20011;-84
2022/01/14 07:39:53;;;;;;;;;;;3.80;99.90;;;;;;4262325;33;30356;-84
2022/01/14 07:42:20;;;;;;;;;;;3.80;99.90;;;;;;4249782;33;25627;-84
2022/01/14 07:44:48;;;;;;;;;;;3.80;99.90;;;;;;4249943;33;34241;-85
2022/01/14 07:47:18;;;;;;;;;;;3.80;99.90;;;;;;4249666;33;41855;-85
2022/01/14 07:49:46;;;;;;;;;;;3.80;99.90;;;;;;4250425;33;20114;-84
2022/01/14 07:52:13;;;;;;;;;;;3.80;99.90;;;;;;4250345;33;20006;-85
2022/01/14 07:54:44;;;;;;;;;;;3.80;99.90;;;;;;4262479;33;20393;-84
2022/01/14 07:57:14;;;;;;;;;;;3.80;99.90;;;;;;4261382;33;22184;-84
2022/01/14 07:59:42;;;;;;;;;;;3.80;99.90;;;;;;4274508;33;35782;-84
2022/01/14 08:02:12;;;;;;;;;;;3.80;99.90;;;;;;4261924;33;20031;-84
2022/01/14 08:04:41;;;;;;;;;;;3.80;99.90;;;;;;4261959;33;29393;-84
2022/01/14 08:07:08;;;;;;;;;;;3.80;99.90;;;;;;4261265;33;36553;-84
2022/01/14 08:09:39;;;;;;;;;;;3.80;99.90;;;;;;4249604;33;41134;-84
2022/01/14 08:12:07;;;;;;;;;;;3.80;99.90;;;;;;4250613;33;19996;-84
2022/01/14 08:14:35;;;;;;;;;;;3.80;99.90;;;;;;4250889;33;20003;-84
2022/01/14 08:17:02;;;;;;;;;;;3.80;99.90;;;;;;4262716;33;20003;-84
2022/01/14 08:19:36;;;;;;;;;;;3.80;99.90;;;;;;4262920;33;20011;-84
2022/01/14 08:22:10;;;;;;;;;;;3.80;99.90;;;;;;4250693;33;20020;-84
2022/01/14 08:24:40;;;;;;;;;;;3.80;99.90;;;;;;4250473;33;20055;-84
2022/01/14 08:27:07;;;;;;;;;;;3.80;99.90;;;;;;4274609;33;20002;-84
2022/01/14 08:29:35;;;;;;;;;;;3.80;99.90;;;;;;4250130;33;20051;-84
2022/01/14 08:32:04;;;;;;;;;;;3.80;99.90;;;;;;4249955;33;20333;-84
2022/01/14 08:34:32;;;;;;;;;;;3.80;99.90;;;;;;4261361;33;20018;-84
2022/01/14 08:37:08;;;;;;;;;;;3.80;99.90;;;;;;4262385;33;20013;-84
2022/01/14 08:39:35;;;;;;;;;;;3.80;99.90;;;;;;4262311;33;20073;-84
2022/01/14 08:42:09;;;;;;;;;;;3.80;99.90;;;;;;4249973;33;20093;-84
2022/01/14 08:44:39;;;;;;;;;;;3.80;99.90;;;;;;4262066;33;20017;-84
2022/01/14 08:47:09;;;;;;;;;;;3.80;99.90;;;;;;4262187;33;20021;-84
2022/01/14 08:49:37;;;;;;;;;;;3.80;99.90;;;;;;4261467;33;19999;-84
2022/01/14 08:52:05;;;;;;;;;;;3.80;99.90;;;;;;4261881;33;20070;-84
2022/01/14 08:54:32;;;;;;;;;;;3.80;99.90;;;;;;4261629;33;20004;-84
2022/01/14 08:57:03;;;;;;;;;;;3.80;99.90;;;;;;4261640;33;20029;-84
2022/01/14 08:59:31;;;;;;;;;;;3.80;99.90;;;;;;4260949;33;20014;-84
2022/01/14 09:02:01;;;;;;;;;;;3.80;99.90;;;;;;4248972;33;20443;-84
2022/01/14 09:04:28;;;;;;;;;;;3.80;99.90;;;;;;4249791;33;20011;-84
2022/01/14 09:07:01;;;;;;;;;;;3.80;99.90;;;;;;4249893;33;20498;-84
2022/01/14 09:09:28;;;;;;;;;;;3.80;99.90;;;;;;4260643;33;20007;-83
2022/01/14 09:12:00;;;;;;;;;;;3.80;99.90;;;;;;4261629;33;20067;-84
2022/01/14 09:14:30;;;;;;;;;;;3.80;99.90;;;;;;4274507;33;20007;-84
2022/01/14 09:16:59;;;;;;;;;;;3.80;99.90;;;;;;4261705;33;20047;-84
2022/01/14 09:19:28;;;;;;;;;;;3.80;99.90;;;;;;4261090;33;20066;-84
2022/01/14 09:21:55;;;;;;;;;;;3.80;99.90;;;;;;4249642;33;20408;-84
2022/01/14 09:24:48;;;;;;;;;;;3.80;99.90;;;;;;4261441;33;20036;-84
2022/01/14 09:27:20;;;;;;;;;;;3.80;99.90;;;;;;4261515;33;20089;-84
2022/01/14 09:29:50;;;;;;;;;;;3.80;99.90;;;;;;4249142;33;21433;-84
2022/01/14 09:32:18;;;;;;;;;;;3.80;99.90;;;;;;4248963;33;20014;-84
2022/01/14 09:34:48;;;;;;;;;;;3.80;99.90;;;;;;4261886;33;20058;-84
2022/01/14 09:37:18;;;;;;;;;;;3.80;99.90;;;;;;4261235;33;20011;-84
2022/01/14 09:39:45;;;;;;;;;;;3.90;99.90;;;;;;4261044;33;20194;-84
2022/01/14 09:42:16;;;;;;;;;;;3.80;99.90;;;;;;4247992;33;36506;-84
2022/01/14 09:44:43;;;;;;;;;;;3.80;99.90;;;;;;4260313;33;30705;-84
2022/01/14 09:47:18;;;;;;;;;;;3.90;99.90;;;;;;4260802;33;20360;-84
2022/01/14 09:49:45;;;;;;;;;;;3.90;99.90;;;;;;4261246;33;20027;-84
2022/01/14 09:52:16;;;;;;;;;;;3.90;99.90;;;;;;4261121;33;19999;-85
2022/01/14 09:54:44;;;;;;;;;;;3.90;99.90;;;;;;4260596;33;29941;-84
2022/01/14 09:57:31;;;;;;;;;;;3.90;99.90;;;;;;4248295;33;31618;-84
2022/01/14 09:59:58;;;;;;;;;;;3.90;99.90;;;;;;4233113;33;36432;-84
2022/01/14 10:02:39;;;;;;;;;;;3.90;99.90;;;;;;4244524;33;33648;-84
2022/01/14 10:05:11;;;;;;;;;;;3.90;99.90;;;;;;4256520;33;44835;-84
2022/01/14 10:07:38;;;;;;;;;;;3.90;99.90;;;;;;4244883;33;30212;-84
2022/01/14 10:10:22;;;;;;;;;;;3.90;99.90;;;;;;4233309;33;31228;-84
2022/01/14 10:12:49;;;;;;;;;;;3.90;99.90;;;;;;4233176;33;41530;-84
2022/01/14 10:15:16;;;;;;;;;;;3.90;99.90;;;;;;4256349;33;40244;-84
2022/01/14 10:17:44;;;;;;;;;;;3.90;99.90;;;;;;4244653;33;34153;-84
2022/01/14 10:20:16;;;;;;;;;;;3.90;99.90;;;;;;4247427;33;32503;-84
2022/01/14 10:22:48;;;;;;;;;;;3.90;99.90;;;;;;4236799;33;20018;-84
2022/01/14 10:25:19;;;;;;;;;;;3.90;99.90;;;;;;4248861;33;20042;-84
2022/01/14 10:27:48;;;;;;;;;;;4.00;99.90;;;;;;4236563;33;20081;-84
2022/01/14 10:30:20;;;;;;;;;;;4.00;99.90;;;;;;4236219;33;31399;-84
2022/01/14 10:32:55;;;;;;;;;;;4.00;99.90;;;;;;4262740;33;19999;-84
2022/01/14 10:35:24;;;;;;;;;;;4.00;99.90;;;;;;4248882;33;29072;-84
2022/01/14 10:37:53;;;;;;;;;;;3.90;99.90;;;;;;4262067;33;20011;-84
2022/01/14 10:40:28;;;;;;;;;;;4.00;99.90;;;;;;4237304;33;20391;-85
2022/01/14 10:43:00;;;;;;;;;;;4.00;99.90;;;;;;4248834;33;33923;-84
2022/01/14 10:45:48;;;;;;;;;;;4.00;99.90;;;;;;4238976;33;21396;-84
2022/01/14 10:48:16;;;;;;;;;;;4.00;99.90;;;;;;4248113;33;30612;-84
2022/01/14 10:50:45;;;;;;;;;;;4.00;99.90;;;;;;4261497;33;29597;-85
2022/01/14 10:53:16;;;;;;;;;;;4.10;99.90;;;;;;4236409;33;37030;-84
2022/01/14 10:55:45;;;;;;;;;;;4.10;99.90;;;;;;4236506;33;30646;-85
2022/01/14 10:58:32;;;;;;;;;;;4.10;99.90;;;;;;4236309;33;32265;-84
2022/01/14 11:01:21;;;;;;;;;;;4.10;99.90;;;;;;4238919;33;30343;-85
2022/01/14 11:03:52;;;;;;;;;;;4.20;99.90;;;;;;4262040;33;45697;-84
2022/01/14 11:06:30;;;;;;;;;;;4.20;99.90;;;;;;4275565;33;33181;-85
2022/01/14 11:08:59;;;;;;;;;;;4.30;99.90;;;;;;4263585;33;20149;-85
2022/01/14 11:11:35;;;;;;;;;;;4.30;99.90;;;;;;4263215;33;20062;-84
2022/01/14 11:14:03;;;;;;;;;;;4.30;99.90;;;;;;4249855;33;44744;-85
2022/01/14 11:16:30;;;;;;;;;;;4.40;99.90;;;;;;4250288;33;31814;-84
2022/01/14 11:19:00;;;;;;;;;;;4.40;99.90;;;;;;4262242;33;33445;-84
2022/01/14 11:24:14;;;;;;;;;;;4.50;99.90;;;;;;4262361;33;29626;-85
2022/01/14 11:26:43;;;;;;;;;;;4.50;99.90;;;;;;4262568;33;20002;-84
2022/01/14 11:29:12;;;;;;;;;;;4.60;99.90;;;;;;4251116;33;20009;-84
2022/01/14 11:31:43;;;;;;;;;;;4.60;99.90;;;;;;4262107;33;20019;-84
2022/01/14 11:34:32;;;;;;;;;;;4.60;99.90;;;;;;4262661;33;20129;-84
2022/01/14 11:37:01;;;;;;;;;;;4.60;99.90;;;;;;4262540;33;20018;-84
2022/01/14 11:39:34;;;;;;;;;;;4.70;99.90;;;;;;4275475;33;20100;-84
2022/01/14 11:42:08;;;;;;;;;;;4.70;99.90;;;;;;4263279;33;20007;-84
2022/01/14 11:44:43;;;;;;;;;;;4.80;99.90;;;;;;4251204;33;20352;-84
2022/01/14 11:47:35;;;;;;;;;;;4.80;99.90;;;;;;4263080;33;20010;-85
2022/01/14 11:50:05;;;;;;;;;;;4.80;99.90;;;;;;4250162;33;30143;-84
2022/01/14 11:52:42;;;;;;;;;;;4.80;99.90;;;;;;4249635;33;38858;-84
2022/01/14 11:55:22;;;;;;;;;;;4.80;99.90;;;;;;4262619;33;20026;-85
2022/01/14 11:57:52;;;;;;;;;;;4.80;99.90;;;;;;4262245;33;24187;-84
2022/01/14 12:00:30;;;;;;;;;;;4.90;99.90;;;;;;4261191;33;42958;-84
2022/01/14 12:02:58;;;;;;;;;;;4.90;99.90;;;;;;4262404;33;20070;-84
2022/01/14 12:05:32;;;;;;;;;;;4.90;99.90;;;;;;4263212;33;20066;-84
2022/01/14 12:08:07;;;;;;;;;;;4.90;99.90;;;;;;4261098;33;42898;-84
2022/01/14 12:10:35;;;;;;;;;;;5.00;99.90;;;;;;4262041;33;27039;-84
2022/01/14 12:13:41;;;;;;;;;;;5.00;99.90;;;;;;4250795;33;20009;-84
2022/01/14 12:16:09;;;;;;;;;;;5.00;99.90;;;;;;4259117;33;33754;-84
2022/01/14 12:18:46;;;;;;;;;;;5.00;99.90;;;;;;4261288;33;28939;-85
2022/01/14 12:21:16;;;;;;;;;;;5.00;99.90;;;;;;4262817;33;20010;-84
2022/01/14 12:23:46;;;;;;;;;;;5.00;99.90;;;;;;4274749;33;20018;-85
2022/01/14 12:26:18;;;;;;;;;;;5.00;99.90;;;;;;4261976;33;20025;-84
2022/01/14 12:28:45;;;;;;;;;;;5.00;99.90;;;;;;4261782;33;20007;-84
2022/01/14 12:31:13;;;;;;;;;;;5.10;99.90;;;;;;4250009;33;20007;-85
2022/01/14 12:33:41;;;;;;;;;;;5.10;99.90;;;;;;4249815;33;20007;-85
2022/01/14 12:36:11;;;;;;;;;;;5.10;99.90;;;;;;4249938;33;20037;-85
2022/01/14 12:38:39;;;;;;;;;;;5.10;99.90;;;;;;4250317;33;20062;-84
2022/01/14 12:41:19;;;;;;;;;;;5.20;99.90;;;;;;4262443;33;20025;-85
2022/01/14 12:43:46;;;;;;;;;;;5.20;99.90;;;;;;4261669;33;20360;-85
2022/01/14 12:46:53;;;;;;;;;;;5.20;99.90;;;;;;4249884;33;20009;-85
2022/01/14 12:49:12;;;;;;;;;;;5.20;99.90;;;;;;4262053;33;20129;-85
2022/01/14 12:51:45;;;;;;;;;;;5.20;99.90;;;;;;4249901;33;20023;-85
2022/01/14 12:54:21;;;;;;;;;;;5.30;99.90;;;;;;4261573;33;20015;-85
2022/01/14 12:56:51;;;;;;;;;;;5.30;99.90;;;;;;4261950;33;20002;-85
2022/01/14 12:59:21;;;;;;;;;;;5.40;99.90;;;;;;4250015;33;20076;-85
2022/01/14 13:01:52;;;;;;;;;;;5.40;99.90;;;;;;4261454;33;20081;-84
2022/01/14 13:04:21;;;;;;;;;;;5.40;99.90;;;;;;4261590;33;20000;-85
2022/01/14 13:06:58;;;;;;;;;;;5.40;99.90;;;;;;4261547;33;20133;-85
2022/01/14 13:09:32;;;;;;;;;;;5.40;99.90;;;;;;4261953;33;20074;-85
2022/01/14 13:12:13;;;;;;;;;;;5.50;99.90;;;;;;4248773;33;24796;-85
2022/01/14 13:14:47;;;;;;;;;;;5.50;99.90;;;;;;4260741;33;41695;-85
2022/01/14 13:17:24;;;;;;;;;;;5.50;99.90;;;;;;4261452;33;20017;-85
2022/01/14 13:20:03;;;;;;;;;;;5.50;99.90;;;;;;4249968;33;19999;-85
2022/01/14 13:22:31;;;;;;;;;;;5.60;99.90;;;;;;4249484;33;20002;-85
2022/01/14 13:25:00;;;;;;;;;;;5.60;99.90;;;;;;4261147;33;20076;-85
2022/01/14 13:27:32;;;;;;;;;;;5.60;99.90;;;;;;4249663;33;20037;-85
2022/01/14 13:30:22;;;;;;;;;;;5.60;99.90;;;;;;4274592;33;20051;-85
2022/01/14 13:32:50;;;;;;;;;;;5.70;99.90;;;;;;4261545;33;20073;-85
2022/01/14 13:35:24;;;;;;;;;;;5.70;99.90;;;;;;4261463;33;20011;-85
2022/01/14 13:37:56;;;;;;;;;;;5.70;99.90;;;;;;4248767;33;20030;-84
2022/01/14 13:40:29;;;;;;;;;;;5.70;99.90;;;;;;4249663;33;20048;-85
2022/01/14 13:43:07;;;;;;;;;;;5.70;99.90;;;;;;4261700;33;20034;-85
2022/01/14 13:45:35;;;;;;;;;;;5.70;99.90;;;;;;4260943;33;19996;-85
2022/01/14 13:48:25;;;;;;;;;;;5.70;99.90;;;;;;4261525;33;20389;-85
2022/01/14 13:50:56;;;;;;;;;;;5.80;99.90;;;;;;4260784;33;20011;-85
2022/01/14 13:53:28;;;;;;;;;;;5.80;99.90;;;;;;4261531;33;20007;-85
2022/01/14 13:56:03;;;;;;;;;;;5.80;99.90;;;;;;4260709;33;20000;-85
2022/01/14 13:58:38;;;;;;;;;;;5.80;99.90;;;;;;4249690;33;20009;-85
2022/01/14 14:01:09;;;;;;;;;;;5.80;99.90;;;;;;4261188;33;20002;-85
2022/01/14 14:03:51;;;;;;;;;;;5.80;99.90;;;;;;4248761;33;22947;-85
2022/01/14 14:06:23;;;;;;;;;;;5.80;99.90;;;;;;4273849;33;20017;-85
2022/01/14 14:16:55;;;;;;;;;;;5.90;99.90;;;;;;4260596;33;21459;-85
2022/01/14 14:19:25;;;;;;;;;;;5.90;99.90;;;;;;4249314;33;20041;-85
2022/01/14 14:22:05;;;;;;;;;;;5.90;99.90;;;;;;4262425;33;20010;-85
2022/01/14 14:24:35;;;;;;;;;;;6.00;99.90;;;;;;4248953;33;20003;-85
2022/01/14 14:27:10;;;;;;;;;;;6.00;99.90;;;;;;4249221;33;20467;-85
2022/01/14 14:29:45;;;;;;;;;;;6.00;99.90;;;;;;4273542;33;20006;-85
2022/01/14 14:32:19;;;;;;;;;;;6.00;99.90;;;;;;4260473;33;20015;-85
2022/01/14 14:34:46;;;;;;;;;;;6.00;99.90;;;;;;4260625;33;19999;-85
2022/01/14 14:37:16;;;;;;;;;;;6.10;99.90;;;;;;4260711;33;20007;-85
2022/01/14 14:39:43;;;;;;;;;;;6.10;99.90;;;;;;4249099;33;20007;-85
2022/01/14 14:42:13;;;;;;;;;;;6.10;99.90;;;;;;4260896;33;20029;-85
2022/01/14 14:44:40;;;;;;;;;;;6.10;99.90;;;;;;4248942;33;20009;-85
2022/01/14 14:47:14;;;;;;;;;;;6.10;99.90;;;;;;4260797;33;20000;-85
2022/01/14 14:49:44;;;;;;;;;;;6.10;99.90;;;;;;4261157;33;20377;-85
2022/01/14 14:52:11;;;;;;;;;;;6.10;99.90;;;;;;4260792;33;19995;-85
2022/01/14 14:54:41;;;;;;;;;;;6.10;99.90;;;;;;4249197;33;20037;-85
2022/01/14 14:57:08;;;;;;;;;;;6.20;99.90;;;;;;4260561;33;20084;-85
2022/01/14 14:59:39;;;;;;;;;;;6.20;99.90;;;;;;4260639;33;20404;-85
2022/01/14 15:02:12;;;;;;;;;;;6.20;99.90;;;;;;4248583;33;20010;-85
2022/01/14 15:04:45;;;;;;;;;;;6.20;99.90;;;;;;4260930;33;20423;-85
2022/01/14 15:07:13;;;;;;;;;;;6.30;99.90;;;;;;4263593;33;20024;-85
2022/01/14 15:09:41;;;;;;;;;;;6.30;99.90;;;;;;4263144;33;20101;-85
2022/01/14 15:12:12;;;;;;;;;;;6.30;99.90;;;;;;4263670;33;20432;-85
2022/01/14 15:14:43;;;;;;;;;;;6.30;99.90;;;;;;4251368;33;20000;-85
2022/01/14 15:19:53;;;;;;;;;;;6.30;99.90;;;;;;4263014;33;19991;-85
2022/01/14 15:22:23;;;;;;;;;;;6.30;99.90;;;;;;4263351;33;20026;-85
2022/01/14 15:24:53;;;;;;;;;;;6.30;99.90;;;;;;4251487;33;20003;-85
2022/01/14 15:27:20;;;;;;;;;;;6.30;99.90;;;;;;4262943;33;20011;-85